createdAt,value
2018-06-15T00:00:13.241Z,0
2018-06-15T00:01:23.217Z,0
2018-06-15T00:02:32.939Z,0
2018-06-15T00:03:42.653Z,0
2018-06-15T00:04:52.625Z,0
2018-06-15T00:06:02.608Z,0
2018-06-15T00:07:12.583Z,0
2018-06-15T00:08:22.288Z,0
2018-06-15T00:09:31.754Z,0
2018-06-15T00:10:41.727Z,0
2018-06-15T00:11:51.427Z,0
2018-06-15T00:13:00.881Z,0
2018-06-15T00:14:10.865Z,0
2018-06-15T00:15:20.584Z,0
2018-06-15T00:16:30.556Z,0
2018-06-15T00:17:40.525Z,0
2018-06-15T00:18:49.974Z,0
2018-06-15T00:19:59.934Z,0
2018-06-15T00:21:09.891Z,0
2018-06-15T00:22:19.855Z,0
2018-06-15T00:23:29.822Z,0
2018-06-15T00:24:39.790Z,0
2018-06-15T00:25:49.499Z,0
2018-06-15T00:26:59.203Z,0
2018-06-15T00:28:08.961Z,0
2018-06-15T00:29:18.918Z,0
2018-06-15T00:30:28.881Z,0
2018-06-15T00:31:38.850Z,0
2018-06-15T00:32:48.550Z,0
2018-06-15T00:33:58.259Z,0
2018-06-15T00:35:07.963Z,0
2018-06-15T00:36:17.938Z,0
2018-06-15T00:37:27.895Z,0
2018-06-15T00:38:37.349Z,0
2018-06-15T00:39:46.804Z,0
2018-06-15T00:40:56.775Z,0
2018-06-15T00:42:06.753Z,0
2018-06-15T00:43:16.458Z,0
2018-06-15T00:44:26.418Z,0
2018-06-15T00:45:36.379Z,0
2018-06-15T00:46:46.358Z,0
2018-06-15T00:47:56.315Z,0
2018-06-15T00:49:06.361Z,0
2018-06-15T00:50:16.338Z,0
2018-06-15T00:51:26.301Z,0
2018-06-15T00:52:36.021Z,0
2018-06-15T00:53:45.985Z,0
2018-06-15T00:54:55.945Z,0
2018-06-15T00:56:05.652Z,0
2018-06-15T00:57:15.620Z,0
2018-06-15T00:58:25.327Z,0
2018-06-15T00:59:35.292Z,0
2018-06-15T01:00:44.999Z,0
2018-06-15T01:01:54.726Z,0
2018-06-15T01:03:04.691Z,0
2018-06-15T01:04:14.662Z,0
2018-06-15T01:05:24.375Z,0
2018-06-15T01:06:34.084Z,0
2018-06-15T01:07:44.065Z,0
2018-06-15T01:08:54.030Z,0
2018-06-15T01:10:03.994Z,0
2018-06-15T01:11:13.977Z,0
2018-06-15T01:12:23.952Z,0
2018-06-15T01:13:33.910Z,0
2018-06-15T01:14:43.880Z,0
2018-06-15T01:15:53.588Z,0
2018-06-15T01:17:03.560Z,0
2018-06-15T01:18:13.536Z,0
2018-06-15T01:19:23.503Z,0
2018-06-15T01:20:32.996Z,0
2018-06-15T01:21:42.978Z,0
2018-06-15T01:22:52.941Z,0
2018-06-15T01:24:02.897Z,0
2018-06-15T01:25:12.610Z,0
2018-06-15T01:26:22.578Z,0
2018-06-15T01:27:32.537Z,0
2018-06-15T01:28:42.549Z,0
2018-06-15T01:29:52.264Z,0
2018-06-15T01:31:01.710Z,0
2018-06-15T01:32:11.430Z,0
2018-06-15T01:33:21.408Z,0
2018-06-15T01:34:31.120Z,0
2018-06-15T01:35:40.848Z,0
2018-06-15T01:36:50.830Z,0
2018-06-15T01:38:00.554Z,0
2018-06-15T01:39:10.576Z,0
2018-06-15T01:40:20.550Z,0
2018-06-15T01:41:30.555Z,0
2018-06-15T01:42:40.513Z,0
2018-06-15T01:43:50.487Z,0
2018-06-15T01:45:00.444Z,0
2018-06-15T01:46:10.440Z,0
2018-06-15T01:47:20.410Z,0
2018-06-15T01:48:30.117Z,0
2018-06-15T01:49:39.820Z,0
2018-06-15T01:50:49.793Z,0
2018-06-15T01:51:59.758Z,0
2018-06-15T01:53:09.714Z,0
2018-06-15T01:54:19.687Z,0
2018-06-15T01:55:29.655Z,0
2018-06-15T01:56:39.621Z,0
2018-06-15T01:57:49.324Z,0
2018-06-15T01:58:59.031Z,0
2018-06-15T02:00:09.006Z,0
2018-06-15T02:01:19.585Z,0
2018-06-15T02:02:29.632Z,0
2018-06-15T02:03:39.599Z,0
2018-06-15T02:04:49.309Z,0
2018-06-15T02:05:59.011Z,0
2018-06-15T02:07:08.771Z,0
2018-06-15T02:08:18.478Z,0
2018-06-15T02:09:28.460Z,0
2018-06-15T02:10:38.429Z,0
2018-06-15T02:11:48.389Z,0
2018-06-15T02:12:58.092Z,0
2018-06-15T02:14:07.792Z,0
2018-06-15T02:15:17.786Z,0
2018-06-15T02:16:27.760Z,0
2018-06-15T02:17:37.717Z,0
2018-06-15T02:18:47.430Z,0
2018-06-15T02:19:57.157Z,0
2018-06-15T02:21:06.881Z,0
2018-06-15T02:22:16.853Z,0
2018-06-15T02:23:26.831Z,0
2018-06-15T02:24:36.806Z,0
2018-06-15T02:25:46.779Z,0
2018-06-15T02:26:56.748Z,0
2018-06-15T02:28:06.460Z,0
2018-06-15T02:29:16.443Z,0
2018-06-15T02:30:26.150Z,0
2018-06-15T02:31:35.858Z,0
2018-06-15T02:32:45.596Z,0
2018-06-15T02:33:55.319Z,0
2018-06-15T02:35:05.304Z,0
2018-06-15T02:36:15.024Z,5
2018-06-15T02:37:24.986Z,5
2018-06-15T02:38:34.964Z,5
2018-06-15T02:39:44.916Z,5
2018-06-15T02:40:54.901Z,5
2018-06-15T02:42:04.867Z,5
2018-06-15T02:43:14.609Z,5
2018-06-15T02:44:24.569Z,5
2018-06-15T02:45:34.881Z,5
2018-06-15T02:46:44.962Z,10
2018-06-15T02:47:54.514Z,10
2018-06-15T02:49:04.498Z,10
2018-06-15T02:50:14.469Z,10
2018-06-15T02:51:24.193Z,10
2018-06-15T02:52:33.918Z,10
2018-06-15T02:53:43.633Z,10
2018-06-15T02:54:53.606Z,10
2018-06-15T02:56:03.578Z,15
2018-06-15T02:57:13.548Z,15
2018-06-15T02:58:23.263Z,15
2018-06-15T02:59:32.978Z,15
2018-06-15T03:00:42.693Z,15
2018-06-15T03:01:52.409Z,15
2018-06-15T03:03:02.388Z,20
2018-06-15T03:04:12.381Z,20
2018-06-15T03:05:22.374Z,20
2018-06-15T03:06:32.092Z,20
2018-06-15T03:07:42.061Z,20
2018-06-15T03:08:51.775Z,20
2018-06-15T03:10:01.767Z,25
2018-06-15T03:11:11.764Z,25
2018-06-15T03:12:21.750Z,25
2018-06-15T03:13:31.739Z,25
2018-06-15T03:14:41.732Z,25
2018-06-15T03:15:51.458Z,25
2018-06-15T03:17:01.433Z,25
2018-06-15T03:18:11.424Z,30
2018-06-15T03:19:20.895Z,30
2018-06-15T03:20:30.602Z,30
2018-06-15T03:21:40.320Z,30
2018-06-15T03:22:50.273Z,35
2018-06-15T03:24:00.244Z,35
2018-06-15T03:25:10.646Z,40
2018-06-15T03:26:20.625Z,40
2018-06-15T03:27:30.593Z,45
2018-06-15T03:28:40.575Z,45
2018-06-15T03:29:50.557Z,45
2018-06-15T03:31:00.013Z,50
2018-06-15T03:32:09.995Z,50
2018-06-15T03:33:19.971Z,55
2018-06-15T03:34:29.493Z,55
2018-06-15T03:35:39.211Z,60
2018-06-15T03:36:49.185Z,60
2018-06-15T03:37:59.151Z,65
2018-06-15T03:39:09.128Z,65
2018-06-15T03:40:19.087Z,70
2018-06-15T03:41:28.800Z,70
2018-06-15T03:42:38.506Z,70
2018-06-15T03:43:48.468Z,70
2018-06-15T03:44:58.450Z,70
2018-06-15T03:46:08.417Z,75
2018-06-15T03:47:18.126Z,75
2018-06-15T03:48:27.835Z,75
2018-06-15T03:49:37.808Z,80
2018-06-15T03:50:47.769Z,80
2018-06-15T03:51:57.477Z,85
2018-06-15T03:53:07.192Z,85
2018-06-15T03:54:17.156Z,90
2018-06-15T03:55:26.869Z,90
2018-06-15T03:56:36.839Z,95
2018-06-15T03:57:46.788Z,100
2018-06-15T03:58:56.689Z,100
2018-06-15T04:00:06.409Z,105
2018-06-15T04:01:16.390Z,105
2018-06-15T04:02:26.355Z,110
2018-06-15T04:03:36.326Z,115
2018-06-15T04:04:46.045Z,120
2018-06-15T04:05:56.036Z,125
2018-06-15T04:07:06.014Z,130
2018-06-15T04:08:15.721Z,130
2018-06-15T04:09:25.680Z,135
2018-06-15T04:10:35.389Z,140
2018-06-15T04:11:45.367Z,140
2018-06-15T04:12:55.471Z,145
2018-06-15T04:14:05.181Z,150
2018-06-15T04:15:15.149Z,155
2018-06-15T04:16:24.857Z,160
2018-06-15T04:17:34.822Z,165
2018-06-15T04:18:44.512Z,165
2018-06-15T04:19:54.775Z,170
2018-06-15T04:21:04.216Z,170
2018-06-15T04:22:14.197Z,175
2018-06-15T04:23:23.902Z,180
2018-06-15T04:24:33.597Z,180
2018-06-15T04:25:43.551Z,185
2018-06-15T04:26:53.283Z,185
2018-06-15T04:28:02.999Z,190
2018-06-15T04:29:12.709Z,190
2018-06-15T04:30:22.670Z,195
2018-06-15T04:31:32.644Z,195
2018-06-15T04:32:42.095Z,195
2018-06-15T04:33:51.802Z,200
2018-06-15T04:35:01.824Z,200
2018-06-15T04:36:11.797Z,200
2018-06-15T04:37:21.618Z,200
2018-06-15T04:38:31.646Z,200
2018-06-15T04:39:41.359Z,200
2018-06-15T04:40:51.331Z,195
2018-06-15T04:42:01.288Z,200
2018-06-15T04:43:11.253Z,195
2018-06-15T04:44:21.239Z,195
2018-06-15T04:45:31.223Z,200
2018-06-15T04:46:41.194Z,195
2018-06-15T04:47:51.167Z,200
2018-06-15T04:49:01.155Z,195
2018-06-15T04:50:10.858Z,200
2018-06-15T04:51:21.051Z,200
2018-06-15T04:52:31.034Z,205
2018-06-15T04:53:40.755Z,205
2018-06-15T04:54:50.464Z,205
2018-06-15T04:56:00.446Z,205
2018-06-15T04:57:10.149Z,205
2018-06-15T04:58:20.115Z,205
2018-06-15T04:59:29.572Z,205
2018-06-15T05:00:39.531Z,205
2018-06-15T05:01:49.550Z,205
2018-06-15T05:02:59.049Z,205
2018-06-15T05:04:08.502Z,205
2018-06-15T05:05:18.211Z,210
2018-06-15T05:06:28.188Z,215
2018-06-15T05:07:37.903Z,220
2018-06-15T05:08:47.879Z,225
2018-06-15T05:09:57.854Z,230
2018-06-15T05:11:07.599Z,240
2018-06-15T05:12:17.322Z,245
2018-06-15T05:13:27.305Z,250
2018-06-15T05:14:37.266Z,255
2018-06-15T05:15:46.971Z,260
2018-06-15T05:16:56.687Z,260
2018-06-15T05:18:06.659Z,265
2018-06-15T05:19:16.632Z,275
2018-06-15T05:20:26.341Z,285
2018-06-15T05:21:36.050Z,295
2018-06-15T05:22:45.761Z,300
2018-06-15T05:23:55.750Z,305
2018-06-15T05:25:05.476Z,305
2018-06-15T05:26:15.462Z,310
2018-06-15T05:27:25.166Z,310
2018-06-15T05:28:34.660Z,315
2018-06-15T05:29:44.654Z,315
2018-06-15T05:30:54.617Z,325
2018-06-15T05:32:04.608Z,325
2018-06-15T05:33:14.579Z,325
2018-06-15T05:34:23.781Z,330
2018-06-15T05:35:33.879Z,335
2018-06-15T05:36:43.855Z,340
2018-06-15T05:37:53.568Z,340
2018-06-15T05:39:03.295Z,345
2018-06-15T05:40:13.303Z,350
2018-06-15T05:41:23.019Z,350
2018-06-15T05:42:33.076Z,350
2018-06-15T05:43:43.060Z,350
2018-06-15T05:44:52.789Z,350
2018-06-15T05:46:02.821Z,350
2018-06-15T05:47:12.545Z,350
2018-06-15T05:48:22.577Z,345
2018-06-15T05:49:32.562Z,345
2018-06-15T05:50:42.545Z,345
2018-06-15T05:51:52.540Z,340
2018-06-15T05:53:02.253Z,340
2018-06-15T05:54:12.235Z,345
2018-06-15T05:55:21.958Z,335
2018-06-15T05:56:31.469Z,335
2018-06-15T05:57:41.430Z,325
2018-06-15T05:58:50.878Z,320
2018-06-15T06:00:00.859Z,320
2018-06-15T06:01:10.583Z,320
2018-06-15T06:02:20.041Z,325
2018-06-15T06:03:30.021Z,325
2018-06-15T06:04:39.466Z,330
2018-06-15T06:05:49.203Z,340
2018-06-15T06:06:59.198Z,340
2018-06-15T06:08:09.189Z,345
2018-06-15T06:09:19.166Z,355
2018-06-15T06:10:29.169Z,360
2018-06-15T06:11:39.166Z,365
2018-06-15T06:12:48.899Z,370
2018-06-15T06:13:58.871Z,375
2018-06-15T06:15:08.330Z,375
2018-06-15T06:16:18.036Z,375
2018-06-15T06:17:27.756Z,375
2018-06-15T06:18:37.741Z,375
2018-06-15T06:19:47.827Z,380
2018-06-15T06:20:57.796Z,380
2018-06-15T06:22:07.775Z,385
2018-06-15T06:23:17.743Z,385
2018-06-15T06:24:27.722Z,390
2018-06-15T06:25:37.171Z,395
2018-06-15T06:26:47.264Z,395
2018-06-15T06:27:56.999Z,400
2018-06-15T06:29:06.716Z,400
2018-06-15T06:30:16.207Z,400
2018-06-15T06:31:25.924Z,400
2018-06-15T06:32:36.084Z,405
2018-06-15T06:33:45.879Z,400
2018-06-15T06:34:55.601Z,405
2018-06-15T06:36:05.602Z,405
2018-06-15T06:37:15.598Z,405
2018-06-15T06:38:25.316Z,410
2018-06-15T06:39:35.313Z,415
2018-06-15T06:40:45.042Z,420
2018-06-15T06:41:55.033Z,425
2018-06-15T06:43:05.021Z,435
2018-06-15T06:44:14.737Z,440
2018-06-15T06:45:24.460Z,450
2018-06-15T06:46:34.626Z,455
2018-06-15T06:47:44.595Z,470
2018-06-15T06:48:54.561Z,475
2018-06-15T06:50:04.317Z,485
2018-06-15T06:51:14.035Z,490
2018-06-15T06:52:23.753Z,500
2018-06-15T06:53:33.730Z,510
2018-06-15T06:54:43.460Z,515
2018-06-15T06:55:52.916Z,525
2018-06-15T06:57:02.904Z,540
2018-06-15T06:58:12.360Z,550
2018-06-15T06:59:22.079Z,555
2018-06-15T07:00:31.804Z,560
2018-06-15T07:01:41.795Z,560
2018-06-15T07:02:51.762Z,565
2018-06-15T07:04:01.735Z,560
2018-06-15T07:05:11.714Z,555
2018-06-15T07:06:21.977Z,555
2018-06-15T07:07:31.981Z,545
2018-06-15T07:08:41.964Z,535
2018-06-15T07:09:51.693Z,535
2018-06-15T07:11:01.423Z,530
2018-06-15T07:12:11.421Z,530
2018-06-15T07:13:21.665Z,530
2018-06-15T07:14:31.387Z,535
2018-06-15T07:15:41.358Z,530
2018-06-15T07:16:51.342Z,535
2018-06-15T07:18:01.307Z,545
2018-06-15T07:19:11.305Z,545
2018-06-15T07:20:21.021Z,550
2018-06-15T07:21:31.007Z,545
2018-06-15T07:22:40.981Z,545
2018-06-15T07:23:51.118Z,545
2018-06-15T07:25:01.113Z,555
2018-06-15T07:26:11.103Z,560
2018-06-15T07:27:20.823Z,570
2018-06-15T07:28:30.824Z,575
2018-06-15T07:29:40.543Z,580
2018-06-15T07:30:50.023Z,585
2018-06-15T07:31:59.992Z,590
2018-06-15T07:33:10.069Z,590
2018-06-15T07:34:19.786Z,585
2018-06-15T07:35:29.776Z,590
2018-06-15T07:36:39.766Z,595
2018-06-15T07:37:49.747Z,585
2018-06-15T07:38:59.764Z,575
2018-06-15T07:40:09.740Z,565
2018-06-15T07:41:19.722Z,555
2018-06-15T07:42:29.698Z,550
2018-06-15T07:43:39.423Z,535
2018-06-15T07:44:49.392Z,530
2018-06-15T07:45:59.396Z,530
2018-06-15T07:47:09.132Z,535
2018-06-15T07:48:18.860Z,545
2018-06-15T07:49:28.816Z,545
2018-06-15T07:50:38.534Z,555
2018-06-15T07:51:48.506Z,550
2018-06-15T07:52:58.516Z,555
2018-06-15T07:54:08.504Z,570
2018-06-15T07:55:18.229Z,595
2018-06-15T07:56:28.220Z,630
2018-06-15T07:57:37.682Z,670
2018-06-15T07:58:47.414Z,715
2018-06-15T07:59:57.152Z,760
2018-06-15T08:01:06.911Z,790
2018-06-15T08:02:16.634Z,830
2018-06-15T08:03:26.605Z,865
2018-06-15T08:04:36.582Z,895
2018-06-15T08:05:46.566Z,910
2018-06-15T08:06:56.319Z,925
2018-06-15T08:08:06.306Z,935
2018-06-15T08:09:16.292Z,945
2018-06-15T08:10:26.476Z,945
2018-06-15T08:11:36.455Z,945
2018-06-15T08:12:46.450Z,930
2018-06-15T08:13:56.456Z,930
2018-06-15T08:15:06.448Z,945
2018-06-15T08:16:16.475Z,970
2018-06-15T08:17:26.468Z,995
2018-06-15T08:18:36.569Z,1015
2018-06-15T08:19:46.594Z,1030
2018-06-15T08:20:56.642Z,1040
2018-06-15T08:22:06.671Z,1050
2018-06-15T08:23:16.413Z,1050
2018-06-15T08:24:26.466Z,1065
2018-06-15T08:25:36.497Z,1075
2018-06-15T08:26:46.506Z,1075
2018-06-15T08:27:56.740Z,1070
2018-06-15T08:29:06.737Z,1050
2018-06-15T08:30:16.492Z,1010
2018-06-15T08:31:26.488Z,970
2018-06-15T08:32:36.537Z,920
2018-06-15T08:33:46.512Z,895
2018-06-15T08:34:56.485Z,875
2018-06-15T08:36:06.204Z,870
2018-06-15T08:37:16.194Z,870
2018-06-15T08:38:26.189Z,885
2018-06-15T08:39:36.201Z,890
2018-06-15T08:40:46.203Z,900
2018-06-15T08:41:56.230Z,900
2018-06-15T08:43:05.702Z,900
2018-06-15T08:44:15.708Z,900
2018-06-15T08:45:25.684Z,905
2018-06-15T08:46:35.406Z,920
2018-06-15T08:47:45.128Z,940
2018-06-15T08:48:55.152Z,960
2018-06-15T08:50:05.141Z,970
2018-06-15T08:51:15.194Z,980
2018-06-15T08:52:24.922Z,970
2018-06-15T08:53:34.921Z,965
2018-06-15T08:54:44.918Z,960
2018-06-15T08:55:54.669Z,945
2018-06-15T08:57:04.432Z,955
2018-06-15T08:58:13.908Z,950
2018-06-15T08:59:23.898Z,955
2018-06-15T09:00:33.623Z,950
2018-06-15T09:01:43.608Z,925
2018-06-15T09:02:53.088Z,890
2018-06-15T09:04:02.802Z,850
2018-06-15T09:05:12.541Z,820
2018-06-15T09:06:22.259Z,780
2018-06-15T09:07:32.268Z,755
2018-06-15T09:08:42.294Z,745
2018-06-15T09:09:52.304Z,755
2018-06-15T09:11:02.339Z,775
2018-06-15T09:12:12.089Z,800
2018-06-15T09:13:21.813Z,830
2018-06-15T09:14:31.806Z,865
2018-06-15T09:15:41.884Z,875
2018-06-15T09:16:51.619Z,890
2018-06-15T09:18:01.618Z,910
2018-06-15T09:19:11.631Z,925
2018-06-15T09:20:21.644Z,960
2018-06-15T09:21:31.625Z,1005
2018-06-15T09:22:41.612Z,1040
2018-06-15T09:23:51.594Z,1030
2018-06-15T09:25:01.585Z,1035
2018-06-15T09:26:11.307Z,1055
2018-06-15T09:27:21.301Z,1105
2018-06-15T09:28:31.025Z,1140
2018-06-15T09:29:41.021Z,1205
2018-06-15T09:30:51.030Z,1290
2018-06-15T09:32:00.753Z,1580
2018-06-15T09:33:10.740Z,1555
2018-06-15T09:34:20.724Z,1555
2018-06-15T09:35:30.730Z,1440
2018-06-15T09:36:40.727Z,1260
2018-06-15T09:37:50.742Z,1030
2018-06-15T09:39:00.821Z,1310
2018-06-15T09:40:10.860Z,940
2018-06-15T09:41:20.850Z,870
2018-06-15T09:42:30.587Z,790
2018-06-15T09:43:40.559Z,735
2018-06-15T09:44:50.295Z,705
2018-06-15T09:46:00.302Z,685
2018-06-15T09:47:10.335Z,655
2018-06-15T09:48:20.055Z,620
2018-06-15T09:49:29.785Z,590
2018-06-15T09:50:39.770Z,550
2018-06-15T09:51:49.789Z,515
2018-06-15T09:52:59.764Z,475
2018-06-15T09:54:09.876Z,445
2018-06-15T09:55:19.865Z,440
2018-06-15T09:56:29.870Z,450
2018-06-15T09:57:39.877Z,480
2018-06-15T09:58:49.863Z,535
2018-06-15T09:59:59.590Z,595
2018-06-15T10:01:09.595Z,660
2018-06-15T10:02:19.342Z,715
2018-06-15T10:03:29.308Z,760
2018-06-15T10:04:39.029Z,770
2018-06-15T10:05:49.086Z,710
2018-06-15T10:06:59.080Z,670
2018-06-15T10:08:09.062Z,645
2018-06-15T10:09:19.058Z,645
2018-06-15T10:10:29.050Z,655
2018-06-15T10:11:38.776Z,655
2018-06-15T10:12:48.502Z,640
2018-06-15T10:13:58.477Z,615
2018-06-15T10:15:08.467Z,590
2018-06-15T10:16:17.946Z,560
2018-06-15T10:17:27.924Z,545
2018-06-15T10:18:37.909Z,545
2018-06-15T10:19:47.892Z,575
2018-06-15T10:20:57.879Z,630
2018-06-15T10:22:07.344Z,690
2018-06-15T10:23:17.091Z,740
2018-06-15T10:24:27.059Z,785
2018-06-15T10:25:37.055Z,840
2018-06-15T10:26:47.058Z,910
2018-06-15T10:27:57.052Z,1015
2018-06-15T10:29:07.035Z,1265
2018-06-15T10:30:16.519Z,1705
2018-06-15T10:31:26.251Z,1535
2018-06-15T10:32:35.965Z,1495
2018-06-15T10:33:45.961Z,1325
2018-06-15T10:34:55.940Z,1400
2018-06-15T10:36:05.927Z,1585
2018-06-15T10:37:15.666Z,1975
2018-06-15T10:38:25.638Z,2715
2018-06-15T10:39:35.848Z,1435
2018-06-15T10:40:45.899Z,1130
2018-06-15T10:41:55.949Z,985
2018-06-15T10:43:05.675Z,870
2018-06-15T10:44:15.667Z,790
2018-06-15T10:45:25.391Z,720
2018-06-15T10:46:35.358Z,665
2018-06-15T10:47:45.396Z,610
2018-06-15T10:48:55.125Z,570
2018-06-15T10:50:04.862Z,530
2018-06-15T10:51:14.865Z,505
2018-06-15T10:52:24.866Z,490
2018-06-15T10:53:34.575Z,470
2018-06-15T10:54:44.304Z,465
2018-06-15T10:55:54.295Z,475
2018-06-15T10:57:04.284Z,490
2018-06-15T10:58:14.267Z,510
2018-06-15T10:59:23.989Z,530
2018-06-15T11:00:33.753Z,565
2018-06-15T11:01:43.224Z,590
2018-06-15T11:02:53.197Z,625
2018-06-15T11:04:02.928Z,660
2018-06-15T11:05:12.927Z,685
2018-06-15T11:06:22.929Z,705
2018-06-15T11:07:32.923Z,720
2018-06-15T11:08:42.754Z,725
2018-06-15T11:09:52.774Z,765
2018-06-15T11:11:02.757Z,615
2018-06-15T11:12:12.838Z,535
2018-06-15T11:13:22.816Z,485
2018-06-15T11:14:33.085Z,445
2018-06-15T11:15:43.085Z,420
2018-06-15T11:16:53.066Z,415
2018-06-15T11:18:03.048Z,415
2018-06-15T11:19:13.012Z,415
2018-06-15T11:20:22.744Z,410
2018-06-15T11:21:32.505Z,405
2018-06-15T11:22:42.488Z,395
2018-06-15T11:23:52.479Z,390
2018-06-15T11:25:02.459Z,390
2018-06-15T11:26:12.188Z,400
2018-06-15T11:27:22.182Z,410
2018-06-15T11:28:32.215Z,430
2018-06-15T11:29:42.212Z,445
2018-06-15T11:30:52.303Z,455
2018-06-15T11:32:02.357Z,455
2018-06-15T11:33:12.089Z,450
2018-06-15T11:34:22.068Z,450
2018-06-15T11:35:31.790Z,450
2018-06-15T11:36:41.773Z,445
2018-06-15T11:37:51.506Z,445
2018-06-15T11:39:01.534Z,440
2018-06-15T11:40:11.526Z,435
2018-06-15T11:41:22.385Z,435
2018-06-15T11:42:32.444Z,440
2018-06-15T11:43:42.419Z,455
2018-06-15T11:44:52.418Z,485
2018-06-15T11:46:02.413Z,520
2018-06-15T11:47:12.418Z,565
2018-06-15T11:48:22.128Z,600
2018-06-15T11:49:32.138Z,625
2018-06-15T11:50:42.121Z,625
2018-06-15T11:51:52.094Z,605
2018-06-15T11:53:02.321Z,565
2018-06-15T11:54:12.065Z,530
2018-06-15T11:55:21.789Z,495
2018-06-15T11:56:31.803Z,470
2018-06-15T11:57:41.956Z,455
2018-06-15T11:58:51.963Z,445
2018-06-15T12:00:01.713Z,430
2018-06-15T12:01:11.716Z,420
2018-06-15T12:02:21.437Z,410
2018-06-15T12:03:31.428Z,400
2018-06-15T12:04:41.411Z,385
2018-06-15T12:05:51.425Z,375
2018-06-15T12:07:01.409Z,365
2018-06-15T12:08:11.151Z,355
2018-06-15T12:09:20.617Z,350
2018-06-15T12:10:30.713Z,340
2018-06-15T12:11:40.692Z,340
2018-06-15T12:12:50.416Z,345
2018-06-15T12:14:00.397Z,360
2018-06-15T12:15:10.465Z,375
2018-06-15T12:16:20.467Z,405
2018-06-15T12:17:30.510Z,445
2018-06-15T12:18:40.510Z,480
2018-06-15T12:19:50.533Z,530
2018-06-15T12:21:00.280Z,585
2018-06-15T12:22:10.010Z,640
2018-06-15T12:23:20.018Z,685
2018-06-15T12:24:30.043Z,715
2018-06-15T12:25:40.044Z,735
2018-06-15T12:26:49.797Z,745
2018-06-15T12:27:59.312Z,750
2018-06-15T12:29:09.033Z,760
2018-06-15T12:30:19.079Z,790
2018-06-15T12:31:28.838Z,825
2018-06-15T12:32:38.913Z,830
2018-06-15T12:33:48.668Z,835
2018-06-15T12:34:57.894Z,900
2018-06-15T12:36:07.621Z,735
2018-06-15T12:37:17.380Z,630
2018-06-15T12:38:26.857Z,540
2018-06-15T12:39:36.594Z,465
2018-06-15T12:40:46.573Z,405
2018-06-15T12:41:56.548Z,365
2018-06-15T12:43:06.537Z,340
2018-06-15T12:44:16.276Z,325
2018-06-15T12:45:26.261Z,310
2018-06-15T12:46:35.982Z,285
2018-06-15T12:47:45.713Z,265
2018-06-15T12:48:55.178Z,250
2018-06-15T12:50:05.165Z,230
2018-06-15T12:51:14.992Z,220
2018-06-15T12:52:24.659Z,215
2018-06-15T12:53:34.383Z,210
2018-06-15T12:54:44.369Z,205
2018-06-15T12:55:54.091Z,205
2018-06-15T12:57:03.932Z,205
2018-06-15T12:58:13.654Z,210
2018-06-15T12:59:23.654Z,215
2018-06-15T13:00:33.408Z,225
2018-06-15T13:01:43.119Z,230
2018-06-15T13:02:52.602Z,240
2018-06-15T13:04:02.591Z,250
2018-06-15T13:05:12.326Z,265
2018-06-15T13:06:22.333Z,275
2018-06-15T13:07:32.051Z,295
2018-06-15T13:08:41.764Z,315
2018-06-15T13:09:50.956Z,340
2018-06-15T13:11:00.415Z,365
2018-06-15T13:12:10.424Z,405
2018-06-15T13:13:20.305Z,445
2018-06-15T13:14:30.010Z,495
2018-06-15T13:15:39.990Z,555
2018-06-15T13:16:50.004Z,625
2018-06-15T13:18:00.286Z,710
2018-06-15T13:19:09.816Z,805
2018-06-15T13:20:19.556Z,915
2018-06-15T13:21:29.276Z,1090
2018-06-15T13:22:39.022Z,1190
2018-06-15T13:23:48.886Z,1290
2018-06-15T13:24:58.361Z,1395
2018-06-15T13:26:08.355Z,1365
2018-06-15T13:27:18.076Z,1385
2018-06-15T13:28:27.543Z,1585
2018-06-15T13:29:37.528Z,1580
2018-06-15T13:30:46.728Z,1555
2018-06-15T13:31:56.463Z,1585
2018-06-15T13:33:06.273Z,1635
2018-06-15T13:34:16.253Z,1640
2018-06-15T13:35:25.717Z,1480
2018-06-15T13:36:35.457Z,1420
2018-06-15T13:37:44.665Z,1365
2018-06-15T13:38:54.136Z,1285
2018-06-15T13:40:04.108Z,1260
2018-06-15T13:41:13.829Z,1230
2018-06-15T13:42:23.558Z,1180
2018-06-15T13:43:33.302Z,1135
2018-06-15T13:44:43.034Z,1095
2018-06-15T13:45:52.760Z,1075
2018-06-15T13:47:02.504Z,1065
2018-06-15T13:48:12.481Z,1055
2018-06-15T13:49:22.516Z,1040
2018-06-15T13:50:32.246Z,1020
2018-06-15T13:51:41.720Z,1000
2018-06-15T13:52:51.725Z,990
2018-06-15T13:54:01.461Z,985
2018-06-15T13:55:11.465Z,970
2018-06-15T13:56:21.441Z,955
2018-06-15T13:57:31.155Z,940
2018-06-15T13:58:40.638Z,920
2018-06-15T13:59:50.349Z,915
2018-06-15T14:01:00.321Z,895
2018-06-15T14:02:10.310Z,865
2018-06-15T14:03:20.303Z,835
2018-06-15T14:04:29.503Z,800
2018-06-15T14:05:39.216Z,770
2018-06-15T14:06:48.422Z,745
2018-06-15T14:07:57.894Z,715
2018-06-15T14:09:07.375Z,685
2018-06-15T14:10:17.364Z,670
2018-06-15T14:11:27.357Z,650
2018-06-15T14:12:37.090Z,640
2018-06-15T14:13:46.823Z,640
2018-06-15T14:14:56.819Z,635
2018-06-15T14:16:06.555Z,640
2018-06-15T14:17:16.266Z,640
2018-06-15T14:18:26.254Z,625
2018-06-15T14:19:36.007Z,600
2018-06-15T14:20:45.994Z,570
2018-06-15T14:21:55.723Z,550
2018-06-15T14:23:05.702Z,535
2018-06-15T14:24:15.670Z,525
2018-06-15T14:25:25.387Z,515
2018-06-15T14:26:35.124Z,495
2018-06-15T14:27:45.105Z,480
2018-06-15T14:28:55.059Z,470
2018-06-15T14:30:04.551Z,455
2018-06-15T14:31:14.022Z,445
2018-06-15T14:32:23.482Z,430
2018-06-15T14:33:33.199Z,420
2018-06-15T14:34:42.943Z,410
2018-06-15T14:35:52.923Z,400
2018-06-15T14:37:02.648Z,395
2018-06-15T14:38:12.629Z,380
2018-06-15T14:39:22.088Z,365
2018-06-15T14:40:31.595Z,355
2018-06-15T14:41:41.001Z,335
2018-06-15T14:42:50.988Z,325
2018-06-15T14:44:00.449Z,315
2018-06-15T14:45:09.646Z,305
2018-06-15T14:46:19.359Z,300
2018-06-15T14:47:28.555Z,290
2018-06-15T14:48:38.277Z,280
2018-06-15T14:49:48.044Z,270
2018-06-15T14:50:57.502Z,260
2018-06-15T14:52:06.436Z,255
2018-06-15T14:53:15.911Z,255
2018-06-15T14:54:25.889Z,255
2018-06-15T14:55:35.366Z,265
2018-06-15T14:56:45.463Z,270
2018-06-15T14:57:54.712Z,285
2018-06-15T14:59:04.708Z,295
2018-06-15T15:00:14.184Z,315
2018-06-15T15:01:23.954Z,335
2018-06-15T15:02:33.686Z,355
2018-06-15T15:03:43.396Z,380
2018-06-15T15:04:53.325Z,405
2018-06-15T15:06:03.360Z,420
2018-06-15T15:07:12.822Z,425
2018-06-15T15:08:22.275Z,425
2018-06-15T15:09:31.492Z,420
2018-06-15T15:10:40.687Z,415
2018-06-15T15:11:50.172Z,400
2018-06-15T15:13:00.148Z,390
2018-06-15T15:14:09.651Z,385
2018-06-15T15:15:19.376Z,385
2018-06-15T15:16:28.842Z,365
2018-06-15T15:17:38.065Z,355
2018-06-15T15:18:47.823Z,340
2018-06-15T15:19:57.585Z,335
2018-06-15T15:21:07.573Z,315
2018-06-15T15:22:17.304Z,295
2018-06-15T15:23:26.508Z,280
2018-06-15T15:24:36.240Z,270
2018-06-15T15:25:45.435Z,260
2018-06-15T15:26:55.180Z,250
2018-06-15T15:28:04.130Z,250
2018-06-15T15:29:13.886Z,245
2018-06-15T15:30:23.627Z,245
2018-06-15T15:31:32.828Z,235
2018-06-15T15:32:42.281Z,230
2018-06-15T15:33:51.907Z,215
2018-06-15T15:35:01.378Z,205
2018-06-15T15:36:11.388Z,195
2018-06-15T15:37:21.375Z,190
2018-06-15T15:38:30.833Z,185
2018-06-15T15:39:40.572Z,185
2018-06-15T15:40:50.027Z,185
2018-06-15T15:41:59.761Z,175
2018-06-15T15:43:08.972Z,175
2018-06-15T15:44:18.689Z,175
2018-06-15T15:45:28.395Z,180
2018-06-15T15:46:37.856Z,185
2018-06-15T15:47:47.574Z,195
2018-06-15T15:48:57.308Z,195
2018-06-15T15:50:06.524Z,195
2018-06-15T15:51:16.550Z,200
2018-06-15T15:52:26.529Z,195
2018-06-15T15:53:36.501Z,200
2018-06-15T15:54:46.483Z,205
2018-06-15T15:55:56.465Z,195
2018-06-15T15:57:06.449Z,195
2018-06-15T15:58:15.653Z,195
2018-06-15T15:59:25.643Z,195
2018-06-15T16:00:35.625Z,200
2018-06-15T16:01:44.565Z,200
2018-06-15T16:02:54.017Z,200
2018-06-15T16:04:03.725Z,200
2018-06-15T16:05:13.211Z,195
2018-06-15T16:06:22.939Z,195
2018-06-15T16:07:32.745Z,190
2018-06-15T16:08:42.482Z,190
2018-06-15T16:09:51.947Z,185
2018-06-15T16:11:01.936Z,185
2018-06-15T16:12:11.654Z,180